createdAt,value
2023-02-16T00:01:43.912Z,0.69
2023-02-16T00:05:44.780Z,0.71
2023-02-16T00:09:42.773Z,0.73
2023-02-16T00:13:54.867Z,0.80
2023-02-16T00:17:52.758Z,0.90
2023-02-16T00:21:50.758Z,0.98
2023-02-16T00:25:48.780Z,1.05
2023-02-16T00:29:49.747Z,1.06
2023-02-16T00:33:47.832Z,1.05
2023-02-16T00:37:46.729Z,1.02
2023-02-16T00:42:04.692Z,0.98
2023-02-16T00:46:04.761Z,0.92
2023-02-16T00:50:08.762Z,0.86
2023-02-16T00:54:08.685Z,0.80
2023-02-16T00:58:32.779Z,0.78
2023-02-16T01:02:32.798Z,0.79
2023-02-16T01:06:47.747Z,0.79
2023-02-16T01:11:11.707Z,0.87
2023-02-16T01:15:09.710Z,0.96
2023-02-16T01:19:08.755Z,1.03
2023-02-16T01:23:06.680Z,1.05
2023-02-16T01:27:05.644Z,1.04
2023-02-16T01:31:06.051Z,1.01
2023-02-16T01:35:03.628Z,0.95
2023-02-16T01:39:02.636Z,0.88
2023-02-16T01:43:09.733Z,0.82
2023-02-16T01:47:13.647Z,0.75
2023-02-16T01:51:21.667Z,0.70
2023-02-16T01:55:39.627Z,0.68
2023-02-16T01:59:51.628Z,0.70
2023-02-16T02:04:07.651Z,0.80
2023-02-16T02:08:16.612Z,0.88
2023-02-16T02:12:26.932Z,0.90
2023-02-16T02:16:30.649Z,0.84
2023-02-16T02:20:54.562Z,0.78
2023-02-16T02:25:10.788Z,0.71
2023-02-16T02:29:24.595Z,0.65
2023-02-16T02:33:56.556Z,0.58
2023-02-16T02:38:09.709Z,0.47
2023-02-16T02:42:28.562Z,0.37
2023-02-16T02:46:31.565Z,0.33
2023-02-16T02:51:09.545Z,0.34
2023-02-16T02:55:36.604Z,0.43
2023-02-16T02:59:51.521Z,0.53
2023-02-16T03:03:59.554Z,0.62
2023-02-16T03:07:59.513Z,0.68
2023-02-16T03:12:16.523Z,0.67
2023-02-16T03:16:20.536Z,0.62
2023-02-16T03:20:40.573Z,0.56
2023-02-16T03:24:59.453Z,0.48
2023-02-16T03:29:16.487Z,0.40
2023-02-16T03:33:14.540Z,0.32
2023-02-16T03:37:14.496Z,0.30
2023-02-16T03:41:12.584Z,0.33
2023-02-16T03:45:10.455Z,0.42
2023-02-16T03:49:08.510Z,0.46
2023-02-16T03:53:13.491Z,0.49
2023-02-16T03:57:11.543Z,0.51
2023-02-16T04:01:09.524Z,0.47
2023-02-16T04:05:07.391Z,0.40
2023-02-16T04:09:05.481Z,0.34
2023-02-16T04:13:03.440Z,0.26
2023-02-16T04:17:02.430Z,0.18
2023-02-16T04:21:01.619Z,0.12
2023-02-16T04:24:59.447Z,0.09
2023-02-16T04:28:59.478Z,0.10
2023-02-16T04:32:57.433Z,0.15
2023-02-16T04:36:55.348Z,0.24
2023-02-16T04:40:53.518Z,0.31
2023-02-16T04:44:52.384Z,0.36
2023-02-16T04:48:50.354Z,0.36
2023-02-16T04:52:48.499Z,0.31
2023-02-16T04:56:46.448Z,0.25
2023-02-16T05:00:44.431Z,0.20
2023-02-16T05:04:42.479Z,0.20
2023-02-16T05:08:40.289Z,0.21
2023-02-16T05:12:56.332Z,0.26
2023-02-16T05:16:54.361Z,0.33
2023-02-16T05:21:10.335Z,0.39
2023-02-16T05:25:08.333Z,0.42
2023-02-16T05:29:06.368Z,0.40
2023-02-16T05:33:04.305Z,0.37
2023-02-16T05:37:02.317Z,0.32
2023-02-16T05:41:00.315Z,0.27
2023-02-16T05:44:58.321Z,0.21
2023-02-16T05:48:56.267Z,0.23
2023-02-16T05:52:54.311Z,0.29
2023-02-16T05:56:52.283Z,0.36
2023-02-16T06:00:50.280Z,0.45
2023-02-16T06:04:48.350Z,0.55
2023-02-16T06:08:46.250Z,0.57
2023-02-16T06:12:45.279Z,0.62
2023-02-16T06:16:22.912Z,0.66
2023-02-16T06:19:47.119Z,0.71
2023-02-16T06:23:12.804Z,0.79
2023-02-16T06:26:37.762Z,0.91
2023-02-16T06:30:02.750Z,1.08
2023-02-16T06:33:26.778Z,1.26
2023-02-16T06:36:50.796Z,1.44
2023-02-16T06:40:15.558Z,1.60
2023-02-16T06:43:39.595Z,1.73
2023-02-16T06:47:03.698Z,1.85
2023-02-16T06:50:27.860Z,1.97
2023-02-16T06:53:51.892Z,2.12
2023-02-16T06:57:15.944Z,2.18
2023-02-16T07:00:40.154Z,2.31
2023-02-16T07:04:04.272Z,2.45
2023-02-16T07:07:31.017Z,2.60
2023-02-16T07:10:55.566Z,2.70
2023-02-16T07:14:19.577Z,2.75
2023-02-16T07:17:43.681Z,2.88
2023-02-16T07:21:08.411Z,2.99
2023-02-16T07:24:32.439Z,3.05
2023-02-16T07:27:56.649Z,3.17
2023-02-16T07:31:20.892Z,3.29
2023-02-16T07:34:46.694Z,3.36
2023-02-16T07:38:10.689Z,3.42
2023-02-16T07:41:34.532Z,3.47
2023-02-16T07:45:03.870Z,3.52
2023-02-16T07:48:27.812Z,3.55
2023-02-16T07:51:51.894Z,3.63
2023-02-16T07:55:15.846Z,3.75
2023-02-16T07:58:39.760Z,3.89
2023-02-16T08:02:03.847Z,4.11
2023-02-16T08:05:27.875Z,4.21
2023-02-16T08:08:52.042Z,4.24
2023-02-16T08:12:16.925Z,4.26
2023-02-16T08:15:45.073Z,4.34
2023-02-16T08:19:11.389Z,4.40
2023-02-16T08:22:36.063Z,4.38
2023-02-16T08:26:00.046Z,4.36
2023-02-16T08:29:24.989Z,4.39
2023-02-16T08:32:51.150Z,4.35
2023-02-16T08:36:20.633Z,4.40
2023-02-16T08:39:44.876Z,4.55
2023-02-16T08:43:08.975Z,4.71
2023-02-16T08:46:34.291Z,4.84
2023-02-16T08:49:58.254Z,4.88
2023-02-16T08:53:23.774Z,4.99
2023-02-16T08:56:49.863Z,5.17
2023-02-16T09:00:32.223Z,5.24
2023-02-16T09:03:56.237Z,5.34
2023-02-16T09:07:21.454Z,5.42
2023-02-16T09:10:45.494Z,5.48
2023-02-16T09:14:09.628Z,5.56
2023-02-16T09:17:33.650Z,5.75
2023-02-16T09:20:58.244Z,5.83
2023-02-16T09:24:22.237Z,5.96
2023-02-16T09:27:46.802Z,6.05
2023-02-16T09:31:25.659Z,6.18
2023-02-16T09:34:51.497Z,6.34
2023-02-16T09:38:18.028Z,6.47
2023-02-16T09:41:42.014Z,6.54
2023-02-16T09:45:09.922Z,6.55
2023-02-16T09:48:43.027Z,6.49
2023-02-16T09:52:10.056Z,6.58
2023-02-16T09:55:54.706Z,6.66
2023-02-16T09:59:57.590Z,6.72
2023-02-16T10:03:52.296Z,6.74
2023-02-16T10:07:40.293Z,6.73
2023-02-16T10:11:32.837Z,6.85
2023-02-16T10:15:23.584Z,6.97
2023-02-16T10:18:52.670Z,7.03
2023-02-16T10:22:29.613Z,6.98
2023-02-16T10:26:00.983Z,6.99
2023-02-16T10:29:27.088Z,7.03
2023-02-16T10:33:00.787Z,7.08
2023-02-16T10:36:54.057Z,7.12
2023-02-16T10:40:28.999Z,7.11
2023-02-16T10:44:05.104Z,7.06
2023-02-16T10:47:38.461Z,7.12
2023-02-16T10:51:19.227Z,7.20
2023-02-16T10:54:45.371Z,7.31
2023-02-16T10:58:22.466Z,7.44
2023-02-16T11:01:51.062Z,7.58
2023-02-16T11:05:27.620Z,7.85
2023-02-16T11:08:58.073Z,8.13
2023-02-16T11:12:30.953Z,8.31
2023-02-16T11:15:58.546Z,8.45
2023-02-16T11:19:25.987Z,8.60
2023-02-16T11:22:49.968Z,8.73
2023-02-16T11:26:14.109Z,8.84
2023-02-16T11:29:38.236Z,8.87
2023-02-16T11:33:05.655Z,8.91
2023-02-16T11:36:42.217Z,8.88
2023-02-16T11:40:18.815Z,8.90
2023-02-16T11:43:43.442Z,8.85
2023-02-16T11:47:29.885Z,8.85
2023-02-16T11:51:03.501Z,9.04
2023-02-16T11:54:27.871Z,9.17
2023-02-16T11:57:52.176Z,9.37
2023-02-16T12:01:34.854Z,9.54
2023-02-16T12:05:20.629Z,9.55
2023-02-16T12:09:00.272Z,9.44
2023-02-16T12:13:20.326Z,9.50
2023-02-16T12:17:02.509Z,9.53
2023-02-16T12:20:51.552Z,9.45
2023-02-16T12:24:24.311Z,9.42
2023-02-16T12:28:07.237Z,9.44
2023-02-16T12:32:02.974Z,9.52
2023-02-16T12:35:45.329Z,9.65
2023-02-16T12:39:19.368Z,9.70
2023-02-16T12:42:49.715Z,9.77
2023-02-16T12:46:23.847Z,9.79
2023-02-16T12:49:54.468Z,9.77
2023-02-16T12:53:27.698Z,9.81
2023-02-16T12:57:00.680Z,9.88
2023-02-16T13:00:41.088Z,9.95
2023-02-16T13:04:28.931Z,9.92
2023-02-16T13:08:01.187Z,9.94
2023-02-16T13:11:31.565Z,9.97
2023-02-16T13:15:13.589Z,9.97
2023-02-16T13:18:40.455Z,9.99
2023-02-16T13:22:07.053Z,9.98
2023-02-16T13:25:40.004Z,9.99
2023-02-16T13:29:29.281Z,9.89
2023-02-16T13:33:05.306Z,9.80
2023-02-16T13:36:37.210Z,9.68
2023-02-16T13:40:36.307Z,9.59
2023-02-16T13:44:09.270Z,9.57
2023-02-16T13:47:39.867Z,9.54
2023-02-16T13:51:07.381Z,9.52
2023-02-16T13:54:35.678Z,9.44
2023-02-16T13:58:04.550Z,9.28
2023-02-16T14:01:41.771Z,9.11
2023-02-16T14:05:14.715Z,9.01
2023-02-16T14:08:38.790Z,8.85
2023-02-16T14:12:17.011Z,8.81
2023-02-16T14:15:52.350Z,8.67
2023-02-16T14:19:27.641Z,8.53
2023-02-16T14:22:57.605Z,8.46
2023-02-16T14:26:22.022Z,8.40
2023-02-16T14:29:59.694Z,8.35
2023-02-16T14:34:02.709Z,8.30
2023-02-16T14:38:11.644Z,8.23
2023-02-16T14:42:20.743Z,8.08
2023-02-16T14:46:36.720Z,7.92
2023-02-16T14:50:50.615Z,7.86
2023-02-16T14:55:27.591Z,7.81
2023-02-16T14:59:46.593Z,7.78
2023-02-16T15:04:00.694Z,7.70
2023-02-16T15:08:01.626Z,7.59
2023-02-16T15:12:31.603Z,7.48
2023-02-16T15:16:31.614Z,7.32
2023-02-16T15:20:44.719Z,7.18
2023-02-16T15:24:42.566Z,7.04
2023-02-16T15:28:43.576Z,6.87
2023-02-16T15:32:41.601Z,6.71
2023-02-16T15:36:52.641Z,6.56
2023-02-16T15:40:51.548Z,6.42
2023-02-16T15:44:51.540Z,6.28
2023-02-16T15:48:51.549Z,6.20
2023-02-16T15:52:52.581Z,6.17
2023-02-16T15:56:58.649Z,6.16
2023-02-16T16:00:58.602Z,6.15
2023-02-16T16:05:01.866Z,6.09
2023-02-16T16:08:59.566Z,6.00
2023-02-16T16:12:58.555Z,5.89
2023-02-16T16:16:58.504Z,5.75
2023-02-16T16:20:56.722Z,5.65
2023-02-16T16:24:55.555Z,5.53
2023-02-16T16:28:53.741Z,5.41
2023-02-16T16:32:52.576Z,5.31
2023-02-16T16:37:09.564Z,5.22
2023-02-16T16:41:11.543Z,5.15
2023-02-16T16:45:13.490Z,5.13
2023-02-16T16:49:14.558Z,5.14
2023-02-16T16:53:12.542Z,5.17
2023-02-16T16:57:10.448Z,5.22
2023-02-16T17:01:08.497Z,5.20
2023-02-16T17:05:06.473Z,5.15
2023-02-16T17:09:04.432Z,5.06
2023-02-16T17:13:05.537Z,4.94
2023-02-16T17:17:05.457Z,4.84
2023-02-16T17:21:04.432Z,4.71
2023-02-16T17:25:02.509Z,4.60
2023-02-16T17:29:00.411Z,4.51
2023-02-16T17:32:58.370Z,4.41
2023-02-16T17:36:56.448Z,4.34
2023-02-16T17:40:54.427Z,4.31
2023-02-16T17:44:52.419Z,4.31
2023-02-16T17:48:50.498Z,4.34
2023-02-16T17:52:53.372Z,4.36
2023-02-16T17:56:53.341Z,4.35
2023-02-16T18:00:52.414Z,4.31
2023-02-16T18:04:50.386Z,4.24
2023-02-16T18:08:48.373Z,4.17
2023-02-16T18:12:46.396Z,4.07
2023-02-16T18:16:44.447Z,3.98
2023-02-16T18:20:42.345Z,3.90
2023-02-16T18:24:40.327Z,3.80
2023-02-16T18:28:46.368Z,3.70
2023-02-16T18:32:44.344Z,3.62
2023-02-16T18:36:42.287Z,3.59
2023-02-16T18:40:40.335Z,3.60
2023-02-16T18:44:38.381Z,3.61
2023-02-16T18:48:36.582Z,3.64
2023-02-16T18:52:34.336Z,3.62
2023-02-16T18:56:33.442Z,3.60
2023-02-16T19:00:31.428Z,3.55
2023-02-16T19:04:29.429Z,3.46
2023-02-16T19:08:27.285Z,3.39
2023-02-16T19:12:25.304Z,3.31
2023-02-16T19:16:23.344Z,3.26
2023-02-16T19:20:25.252Z,3.22
2023-02-16T19:24:25.243Z,3.23
2023-02-16T19:28:24.294Z,3.25
2023-02-16T19:32:22.277Z,3.30
2023-02-16T19:36:22.275Z,3.28
2023-02-16T19:40:22.195Z,3.22
2023-02-16T19:44:20.225Z,3.16
2023-02-16T19:48:18.323Z,3.12
2023-02-16T19:52:16.256Z,3.11
2023-02-16T19:56:14.202Z,3.15
2023-02-16T20:00:18.414Z,3.16
2023-02-16T20:04:16.271Z,3.16
2023-02-16T20:08:14.178Z,3.17
2023-02-16T20:12:12.187Z,3.15
2023-02-16T20:16:10.366Z,3.09
2023-02-16T20:20:08.292Z,3.05
2023-02-16T20:24:09.219Z,3.02
2023-02-16T20:28:07.110Z,3.02
2023-02-16T20:32:10.335Z,3.03
2023-02-16T20:36:08.249Z,3.07
2023-02-16T20:40:06.280Z,3.05
2023-02-16T20:44:08.315Z,3.00
2023-02-16T20:48:06.159Z,2.94
2023-02-16T20:52:05.331Z,2.86
2023-02-16T20:56:05.604Z,2.80
2023-02-16T21:00:03.167Z,2.76
2023-02-16T21:04:01.199Z,2.76
2023-02-16T21:07:59.090Z,2.80
2023-02-16T21:11:58.093Z,2.84
2023-02-16T21:15:56.156Z,2.85
2023-02-16T21:19:54.171Z,2.86
2023-02-16T21:23:52.082Z,2.82
2023-02-16T21:27:50.089Z,2.78
2023-02-16T21:31:48.168Z,2.75
2023-02-16T21:35:48.054Z,2.77
2023-02-16T21:40:04.117Z,2.79
2023-02-16T21:44:02.147Z,2.80
2023-02-16T21:48:18.099Z,2.77
2023-02-16T21:52:16.052Z,2.72
2023-02-16T21:56:26.031Z,2.65
2023-02-16T22:00:30.132Z,2.58
2023-02-16T22:04:34.001Z,2.54
2023-02-16T22:08:32.033Z,2.53
2023-02-16T22:12:30.160Z,2.54
2023-02-16T22:16:31.100Z,2.55
2023-02-16T22:20:29.171Z,2.53
2023-02-16T22:24:28.182Z,2.49
2023-02-16T22:28:28.425Z,2.45
2023-02-16T22:32:27.027Z,2.37
2023-02-16T22:36:25.957Z,2.29
2023-02-16T22:40:23.992Z,2.27
2023-02-16T22:44:21.982Z,2.28
2023-02-16T22:48:20.128Z,2.31
2023-02-16T22:52:17.956Z,2.37
2023-02-16T22:56:15.980Z,2.39
2023-02-16T23:00:14.933Z,2.37
2023-02-16T23:04:15.017Z,2.34
2023-02-16T23:08:12.948Z,2.32
2023-02-16T23:12:11.087Z,2.31
2023-02-16T23:16:09.916Z,2.31
2023-02-16T23:20:07.905Z,2.30
2023-02-16T23:24:06.892Z,2.33
2023-02-16T23:28:06.939Z,2.31
2023-02-16T23:32:04.875Z,2.27
2023-02-16T23:36:03.155Z,2.22
2023-02-16T23:40:01.948Z,2.20
2023-02-16T23:44:01.191Z,2.18
2023-02-16T23:47:58.888Z,2.18
2023-02-16T23:51:57.010Z,2.21
2023-02-16T23:55:54.888Z,2.22
2023-02-16T23:59:52.968Z,2.21
